Time;durP1;ratioP1;P1;durP2;ratioP2;P2;SDS_P1;SDS_P2;PMS_P1;PMS_P2;Temp;Humidity;BMP_temperature;BMP_pressure;BME280_temperature;BME280_humidity;BME280_pressure;Samples;Min_cycle;Max_cycle;Signal;HPM_P1;HPM_P2
2022/08/10 00:01:50;;;;;;;3.00;2.70;;;;;;;;;;5034526;28;20294;-70
2022/08/10 00:04:18;;;;;;;2.70;2.20;;;;;;;;;;5034066;28;20091;-69
2022/08/10 00:06:47;;;;;;;4.10;2.50;;;;;;;;;;5033905;28;20141;-70
2022/08/10 00:09:14;;;;;;;3.28;2.40;;;;;;;;;;5034417;28;20091;-69
2022/08/10 00:11:40;;;;;;;6.10;2.40;;;;;;;;;;5034170;28;20144;-70
2022/08/10 00:14:06;;;;;;;3.88;2.72;;;;;;;;;;5034010;28;20505;-70
2022/08/10 00:16:33;;;;;;;6.80;3.20;;;;;;;;;;5034005;28;20493;-69
2022/08/10 00:18:59;;;;;;;3.27;2.60;;;;;;;;;;5033922;28;20485;-70
2022/08/10 00:21:26;;;;;;;3.65;2.17;;;;;;;;;;5033986;28;20057;-69
2022/08/10 00:23:52;;;;;;;3.30;2.78;;;;;;;;;;5031857;28;20469;-69
2022/08/10 00:26:19;;;;;;;3.88;2.88;;;;;;;;;;5033768;28;20497;-70
2022/08/10 00:28:47;;;;;;;3.47;2.58;;;;;;;;;;5034013;28;20072;-69
2022/08/10 00:31:13;;;;;;;2.83;2.60;;;;;;;;;;5033701;28;20555;-69
2022/08/10 00:33:40;;;;;;;3.17;2.60;;;;;;;;;;5034005;28;20046;-70
2022/08/10 00:36:07;;;;;;;2.75;2.55;;;;;;;;;;5033589;28;20059;-69
2022/08/10 00:38:35;;;;;;;4.57;2.60;;;;;;;;;;5033890;28;20049;-69
2022/08/10 00:41:02;;;;;;;2.90;2.70;;;;;;;;;;5033727;28;20103;-70
2022/08/10 00:43:28;;;;;;;6.00;2.90;;;;;;;;;;5033789;28;20041;-70
2022/08/10 00:45:55;;;;;;;2.70;2.50;;;;;;;;;;5033767;28;20053;-69
2022/08/10 00:48:26;;;;;;;4.40;3.08;;;;;;;;;;5033518;28;20055;-70
2022/08/10 00:50:53;;;;;;;3.00;2.80;;;;;;;;;;5032451;28;20116;-69
2022/08/10 00:53:20;;;;;;;3.07;2.70;;;;;;;;;;5033625;28;20060;-69
2022/08/10 00:55:47;;;;;;;4.10;2.95;;;;;;;;;;5033719;28;20279;-69
2022/08/10 00:58:34;;;;;;;2.80;2.60;;;;;;;;;;5031987;28;20057;-69
2022/08/10 01:01:00;;;;;;;2.97;2.63;;;;;;;;;;5033495;28;20057;-69
2022/08/10 01:03:27;;;;;;;4.30;2.60;;;;;;;;;;5033301;28;20049;-70
2022/08/10 01:06:19;;;;;;;2.85;2.45;;;;;;;;;;5032002;28;20065;-69
2022/08/10 01:09:05;;;;;;;3.10;2.80;;;;;;;;;;5033228;28;20056;-69
2022/08/10 01:11:38;;;;;;;3.60;2.70;;;;;;;;;;5033316;28;20108;-69
2022/08/10 01:14:34;;;;;;;2.50;2.30;;;;;;;;;;5032754;28;20485;-69
2022/08/10 01:17:09;;;;;;;4.43;2.78;;;;;;;;;;5030847;28;20077;-69
2022/08/10 01:19:35;;;;;;;3.70;3.10;;;;;;;;;;5032760;28;20071;-69
2022/08/10 01:22:11;;;;;;;3.15;2.78;;;;;;;;;;5032953;28;20099;-69
2022/08/10 01:24:47;;;;;;;4.53;3.15;;;;;;;;;;5032950;28;20466;-69
2022/08/10 01:27:30;;;;;;;3.40;2.88;;;;;;;;;;5032704;28;20092;-69
2022/08/10 01:30:23;;;;;;;4.97;3.00;;;;;;;;;;5032672;28;20489;-69
2022/08/10 01:32:50;;;;;;;3.22;2.70;;;;;;;;;;5032137;28;20053;-69
2022/08/10 01:35:29;;;;;;;4.35;3.03;;;;;;;;;;5032309;28;20081;-69
2022/08/10 01:38:01;;;;;;;5.40;2.90;;;;;;;;;;5032446;28;20583;-69
2022/08/10 01:40:29;;;;;;;4.00;2.92;;;;;;;;;;5031229;28;20049;-69
2022/08/10 01:42:57;;;;;;;4.30;3.10;;;;;;;;;;5032304;28;20774;-69
2022/08/10 01:45:35;;;;;;;4.70;2.55;;;;;;;;;;5032291;28;20053;-69
2022/08/10 01:48:30;;;;;;;;;;;;;;;;;;5033276;28;20123;-69
2022/08/10 01:51:16;;;;;;;3.22;2.90;;;;;;;;;;5032459;28;19925;-69
2022/08/10 01:53:50;;;;;;;3.97;2.72;;;;;;;;;;5031057;28;20073;-69
2022/08/10 01:56:18;;;;;;;3.85;2.80;;;;;;;;;;5032430;28;20452;-69
2022/08/10 01:58:47;;;;;;;3.13;2.83;;;;;;;;;;5031106;28;20072;-69
2022/08/10 02:01:16;;;;;;;3.08;2.88;;;;;;;;;;5032087;28;20073;-69
2022/08/10 02:03:45;;;;;;;3.20;2.90;;;;;;;;;;5032087;28;20052;-69
2022/08/10 02:06:33;;;;;;;3.10;2.67;;;;;;;;;;5031863;28;20061;-69
2022/08/10 02:09:02;;;;;;;3.38;2.60;;;;;;;;;;5032301;28;20451;-69
2022/08/10 02:11:32;;;;;;;3.17;2.40;;;;;;;;;;5032290;28;20064;-69
2022/08/10 02:14:19;;;;;;;3.15;2.85;;;;;;;;;;5032142;28;20412;-69
2022/08/10 02:16:47;;;;;;;2.97;2.65;;;;;;;;;;5031869;28;20057;-69
2022/08/10 02:19:16;;;;;;;4.68;2.90;;;;;;;;;;5032030;28;20057;-69
2022/08/10 02:21:45;;;;;;;5.35;3.10;;;;;;;;;;5032052;28;20054;-69
2022/08/10 02:24:32;;;;;;;3.03;2.83;;;;;;;;;;5031494;28;20417;-69
2022/08/10 02:26:59;;;;;;;3.08;2.88;;;;;;;;;;5032099;28;20134;-69
2022/08/10 02:29:28;;;;;;;4.35;2.65;;;;;;;;;;5031669;28;20061;-69
2022/08/10 02:31:55;;;;;;;3.45;3.03;;;;;;;;;;5031995;28;20142;-68
2022/08/10 02:34:23;;;;;;;3.05;2.85;;;;;;;;;;5031971;28;20132;-69
2022/08/10 02:36:52;;;;;;;2.97;2.78;;;;;;;;;;5031906;28;20131;-68
2022/08/10 02:39:20;;;;;;;3.83;2.83;;;;;;;;;;5031610;28;20049;-69
2022/08/10 02:41:50;;;;;;;4.72;3.00;;;;;;;;;;5031864;28;20041;-69
2022/08/10 02:44:49;;;;;;;4.10;3.13;;;;;;;;;;5031584;28;20052;-69
2022/08/10 02:47:39;;;;;;;5.93;3.42;;;;;;;;;;5035007;28;20556;-69
2022/08/10 02:50:20;;;;;;;3.22;2.92;;;;;;;;;;5035691;28;20115;-69
2022/08/10 02:52:49;;;;;;;4.75;3.17;;;;;;;;;;5035728;28;20073;-69
2022/08/10 02:55:29;;;;;;;4.07;2.75;;;;;;;;;;5035807;28;20080;-69
2022/08/10 02:58:01;;;;;;;3.42;3.10;;;;;;;;;;5035522;28;20053;-69
2022/08/10 03:00:45;;;;;;;3.28;3.08;;;;;;;;;;5035337;28;20136;-69
2022/08/10 03:03:20;;;;;;;3.45;2.80;;;;;;;;;;5035491;28;20053;-69
2022/08/10 03:05:48;;;;;;;3.40;3.20;;;;;;;;;;5035312;28;20049;-69
2022/08/10 03:08:18;;;;;;;4.97;2.88;;;;;;;;;;5035394;28;20091;-69
2022/08/10 03:10:45;;;;;;;3.67;2.97;;;;;;;;;;5035327;28;20073;-69
2022/08/10 03:13:11;;;;;;;3.03;2.80;;;;;;;;;;5035394;28;20042;-69
2022/08/10 03:15:38;;;;;;;4.20;3.13;;;;;;;;;;5035428;28;20080;-69
2022/08/10 03:18:06;;;;;;;3.20;2.90;;;;;;;;;;5035359;28;20083;-69
2022/08/10 03:20:35;;;;;;;4.15;3.08;;;;;;;;;;5035389;28;20403;-69
2022/08/10 03:23:20;;;;;;;3.60;3.25;;;;;;;;;;5035091;28;20049;-69
2022/08/10 03:25:48;;;;;;;3.17;2.97;;;;;;;;;;5034808;28;20041;-69
2022/08/10 03:28:24;;;;;;;3.05;2.75;;;;;;;;;;5034960;28;20053;-69
2022/08/10 03:30:50;;;;;;;3.80;3.35;;;;;;;;;;5035164;28;20081;-70
2022/08/10 03:33:18;;;;;;;3.13;2.87;;;;;;;;;;5035159;28;20099;-70
2022/08/10 03:35:44;;;;;;;3.40;3.10;;;;;;;;;;5034694;28;20096;-69
2022/08/10 03:38:31;;;;;;;3.65;3.35;;;;;;;;;;5034869;28;20063;-69
2022/08/10 03:41:00;;;;;;;4.07;3.38;;;;;;;;;;5034938;28;20686;-69
2022/08/10 03:43:27;;;;;;;4.28;3.22;;;;;;;;;;5034869;28;20049;-69
2022/08/10 03:45:56;;;;;;;3.83;3.10;;;;;;;;;;5034626;28;20046;-69
2022/08/10 03:48:25;;;;;;;3.03;2.83;;;;;;;;;;5033632;28;20167;-69
2022/08/10 03:51:10;;;;;;;3.55;3.25;;;;;;;;;;5034833;28;20081;-69
2022/08/10 03:53:36;;;;;;;3.42;3.20;;;;;;;;;;5034796;28;20099;-69
2022/08/10 03:56:23;;;;;;;3.75;3.45;;;;;;;;;;5034589;28;20053;-69
2022/08/10 03:58:57;;;;;;;3.95;3.30;;;;;;;;;;5034409;28;20046;-69
2022/08/10 04:01:24;;;;;;;4.82;3.50;;;;;;;;;;5034599;28;20127;-69
2022/08/10 04:04:10;;;;;;;3.92;3.53;;;;;;;;;;5034446;28;20136;-69
2022/08/10 04:06:41;;;;;;;4.25;3.95;;;;;;;;;;5033903;28;20054;-70
2022/08/10 04:09:08;;;;;;;3.92;3.63;;;;;;;;;;5034528;28;20111;-69
2022/08/10 04:11:35;;;;;;;4.30;3.90;;;;;;;;;;5033104;28;20103;-69
2022/08/10 04:14:06;;;;;;;3.35;3.08;;;;;;;;;;5034417;28;20549;-69
2022/08/10 04:16:52;;;;;;;4.13;3.25;;;;;;;;;;5034258;28;20049;-69
2022/08/10 04:19:18;;;;;;;4.43;3.35;;;;;;;;;;5034023;28;20435;-69
2022/08/10 04:21:46;;;;;;;4.43;3.00;;;;;;;;;;5034200;28;20438;-69
2022/08/10 04:24:16;;;;;;;3.53;3.30;;;;;;;;;;5033791;28;20045;-69
2022/08/10 04:26:55;;;;;;;4.18;3.05;;;;;;;;;;5033915;28;20049;-69
2022/08/10 04:29:21;;;;;;;4.10;3.72;;;;;;;;;;5033872;28;20045;-69
2022/08/10 04:31:49;;;;;;;4.13;3.03;;;;;;;;;;5033801;28;20096;-69
2022/08/10 04:34:16;;;;;;;3.95;3.63;;;;;;;;;;5033661;28;20490;-69
2022/08/10 04:36:42;;;;;;;4.03;3.53;;;;;;;;;;5033607;28;20081;-70
2022/08/10 04:39:10;;;;;;;3.55;3.30;;;;;;;;;;5033905;28;20099;-69
2022/08/10 04:41:36;;;;;;;4.28;3.60;;;;;;;;;;5033611;28;20490;-69
2022/08/10 04:44:11;;;;;;;5.45;3.50;;;;;;;;;;5033621;28;20053;-69
2022/08/10 04:46:38;;;;;;;5.38;3.63;;;;;;;;;;5033421;28;20494;-69
2022/08/10 04:49:23;;;;;;;6.35;4.13;;;;;;;;;;5033734;28;20073;-69
2022/08/10 04:52:09;;;;;;;4.15;3.78;;;;;;;;;;5033694;28;20149;-69
2022/08/10 04:54:36;;;;;;;4.07;3.78;;;;;;;;;;5033300;28;20045;-69
2022/08/10 04:57:03;;;;;;;5.07;4.13;;;;;;;;;;5033573;28;20049;-70
2022/08/10 04:59:29;;;;;;;6.17;4.27;;;;;;;;;;5033026;28;20485;-69
2022/08/10 05:01:55;;;;;;;4.47;4.07;;;;;;;;;;5033166;28;20068;-69
2022/08/10 05:04:42;;;;;;;4.30;4.00;;;;;;;;;;5032971;28;20430;-69
2022/08/10 05:07:12;;;;;;;4.15;3.85;;;;;;;;;;5032888;28;20321;-69
2022/08/10 05:09:44;;;;;;;4.15;3.78;;;;;;;;;;5032490;28;20041;-70
2022/08/10 05:12:30;;;;;;;;;;;;;;;;;;5033576;28;20076;-69
2022/08/10 05:14:56;;;;;;;5.28;4.03;;;;;;;;;;5033170;28;19925;-69
2022/08/10 05:17:23;;;;;;;3.90;3.50;;;;;;;;;;5033056;28;20045;-69
2022/08/10 05:19:49;;;;;;;5.13;3.65;;;;;;;;;;5033048;28;20111;-69
2022/08/10 05:22:30;;;;;;;5.90;3.80;;;;;;;;;;5032805;28;20081;-69
2022/08/10 05:24:57;;;;;;;3.90;3.60;;;;;;;;;;5032617;28;20052;-69
2022/08/10 05:27:23;;;;;;;3.80;3.60;;;;;;;;;;5032650;28;20064;-69
2022/08/10 05:29:50;;;;;;;4.70;4.20;;;;;;;;;;5032970;28;20049;-69
2022/08/10 05:32:28;;;;;;;4.63;4.05;;;;;;;;;;5032657;28;20080;-69
2022/08/10 05:34:55;;;;;;;6.30;4.30;;;;;;;;;;5032781;28;20122;-69
2022/08/10 05:37:22;;;;;;;4.07;3.78;;;;;;;;;;5032741;28;20045;-69
2022/08/10 05:40:09;;;;;;;;;;;;;;;;;;5033135;28;20140;-69
2022/08/10 05:42:35;;;;;;;5.60;5.10;;;;;;;;;;5032341;28;20365;-69
2022/08/10 05:45:02;;;;;;;5.67;5.17;;;;;;;;;;5032589;28;20137;-69
2022/08/10 05:47:29;;;;;;;6.10;4.55;;;;;;;;;;5032561;28;20283;-68
2022/08/10 05:50:17;;;;;;;5.85;5.22;;;;;;;;;;5032548;28;20479;-68
2022/08/10 05:52:44;;;;;;;6.22;5.70;;;;;;;;;;5032445;28;20058;-68
2022/08/10 05:55:10;;;;;;;5.93;5.40;;;;;;;;;;5032241;28;20489;-68
2022/08/10 05:57:37;;;;;;;6.75;5.40;;;;;;;;;;5032123;28;20571;-69
2022/08/10 06:00:05;;;;;;;6.27;5.63;;;;;;;;;;5032276;28;20477;-69
2022/08/10 06:02:57;;;;;;;5.45;5.00;;;;;;;;;;5031813;28;20055;-65
2022/08/10 06:05:25;;;;;;;6.07;5.47;;;;;;;;;;5031194;28;20076;-65
2022/08/10 06:07:56;;;;;;;6.10;5.60;;;;;;;;;;5031280;28;20539;-65
2022/08/10 06:10:23;;;;;;;5.70;5.07;;;;;;;;;;5031334;28;20456;-65
2022/08/10 06:15:57;;;;;;;5.72;5.30;;;;;;;;;;5030660;28;20490;-66
2022/08/10 06:18:24;;;;;;;7.03;6.05;;;;;;;;;;5031471;28;20049;-69
2022/08/10 06:20:50;;;;;;;7.50;5.30;;;;;;;;;;5030568;28;20555;-69
2022/08/10 06:23:17;;;;;;;6.15;5.25;;;;;;;;;;5031571;28;20378;-69
2022/08/10 06:25:44;;;;;;;7.70;5.18;;;;;;;;;;5031190;28;20493;-66
2022/08/10 06:28:33;;;;;;;5.53;5.03;;;;;;;;;;5030922;28;20068;-68
2022/08/10 06:31:00;;;;;;;6.13;5.45;;;;;;;;;;5031847;28;20348;-68
2022/08/10 06:33:26;;;;;;;;;;;;;;;;;;5030582;28;20128;-66
2022/08/10 06:35:55;;;;;;;6.85;5.60;;;;;;;;;;5031949;28;19921;-66
2022/08/10 06:38:22;;;;;;;7.03;5.57;;;;;;;;;;5031812;28;20061;-68
2022/08/10 06:40:50;;;;;;;6.22;4.95;;;;;;;;;;5031534;28;20080;-69
2022/08/10 06:43:19;;;;;;;5.55;5.10;;;;;;;;;;5031862;28;20183;-69
2022/08/10 06:45:52;;;;;;;5.90;5.40;;;;;;;;;;5031663;28;20049;-69
2022/08/10 06:48:36;;;;;;;5.65;4.95;;;;;;;;;;5031804;28;20136;-69
2022/08/10 06:51:12;;;;;;;5.75;5.20;;;;;;;;;;5031457;28;20046;-66
2022/08/10 06:53:41;;;;;;;6.35;4.85;;;;;;;;;;5031418;28;20088;-68
2022/08/10 06:56:27;;;;;;;5.82;5.07;;;;;;;;;;5031108;28;20505;-67
2022/08/10 06:59:07;;;;;;;7.60;4.97;;;;;;;;;;5031124;28;20055;-68
2022/08/10 07:01:49;;;;;;;5.80;4.70;;;;;;;;;;5030635;28;20072;-68
2022/08/10 07:04:31;;;;;;;4.57;4.10;;;;;;;;;;5031218;28;20045;-69
2022/08/10 07:07:03;;;;;;;4.78;4.13;;;;;;;;;;5031052;28;20514;-68
2022/08/10 07:09:31;;;;;;;5.90;4.10;;;;;;;;;;5031521;28;20410;-69
2022/08/10 07:11:59;;;;;;;5.55;3.65;;;;;;;;;;5031504;28;20107;-69
2022/08/10 07:14:38;;;;;;;4.45;3.83;;;;;;;;;;5031161;28;20041;-68
2022/08/10 07:17:06;;;;;;;4.60;4.10;;;;;;;;;;5030367;28;20092;-68
2022/08/10 07:19:42;;;;;;;5.10;4.05;;;;;;;;;;5030271;28;20436;-69
2022/08/10 07:22:19;;;;;;;4.95;3.50;;;;;;;;;;5031560;28;20068;-68
2022/08/10 07:25:06;;;;;;;3.53;2.90;;;;;;;;;;5031084;28;20144;-67
2022/08/10 07:27:33;;;;;;;5.53;3.08;;;;;;;;;;5030959;28;20383;-68
2022/08/10 07:30:20;;;;;;;3.20;2.85;;;;;;;;;;5030990;28;20149;-68
2022/08/10 07:32:47;;;;;;;4.40;2.85;;;;;;;;;;5033319;28;20064;-69
2022/08/10 07:35:13;;;;;;;;;;;;;;;;;;5034326;28;20077;-67
2022/08/10 07:37:41;;;;;;;3.97;2.63;;;;;;;;;;5034787;28;19921;-68
2022/08/10 07:40:07;;;;;;;;;;;;;;;;;;5035164;28;20079;-68
2022/08/10 07:42:35;;;;;;;5.40;2.80;;;;;;;;;;5034609;28;20393;-67
2022/08/10 07:45:07;;;;;;;4.38;2.58;;;;;;;;;;5034751;28;20053;-68
2022/08/10 07:47:38;;;;;;;3.50;2.47;;;;;;;;;;5034784;28;20054;-68
2022/08/10 07:50:19;;;;;;;2.80;1.90;;;;;;;;;;5034591;28;20523;-67
2022/08/10 07:52:46;;;;;;;;;;;;;;;;;;5035186;28;20046;-66
2022/08/10 07:55:15;;;;;;;3.83;2.00;;;;;;;;;;5034684;28;19924;-69
2022/08/10 07:57:43;;;;;;;3.13;2.08;;;;;;;;;;5034335;28;20497;-68
2022/08/10 08:00:10;;;;;;;3.55;1.92;;;;;;;;;;5034440;28;20409;-67
2022/08/10 08:02:45;;;;;;;2.45;2.15;;;;;;;;;;5034633;28;20453;-69
2022/08/10 08:05:12;;;;;;;4.60;2.00;;;;;;;;;;5034523;28;20488;-68
2022/08/10 08:07:59;;;;;;;3.42;2.17;;;;;;;;;;5033986;28;20408;-70
2022/08/10 08:10:27;;;;;;;2.78;1.60;;;;;;;;;;5032658;28;20107;-71
2022/08/10 08:12:56;;;;;;;3.00;1.50;;;;;;;;;;5033301;28;20089;-70
2022/08/10 08:15:23;;;;;;;2.38;1.67;;;;;;;;;;5033820;28;20077;-71
2022/08/10 08:18:10;;;;;;;3.50;1.65;;;;;;;;;;5033629;28;20061;-71
2022/08/10 08:20:38;;;;;;;3.90;1.50;;;;;;;;;;5033713;28;20049;-71
2022/08/10 08:23:06;;;;;;;2.17;1.58;;;;;;;;;;5033657;28;20049;-71
2022/08/10 08:25:54;;;;;;;1.10;1.10;;;;;;;;;;5033438;28;20050;-71
2022/08/10 08:28:20;;;;;;;1.58;1.02;;;;;;;;;;5033351;28;20493;-71
2022/08/10 08:30:47;;;;;;;;;;;;;;;;;;5033888;28;20073;-70
2022/08/10 08:33:16;;;;;;;2.60;1.10;;;;;;;;;;5033214;28;19931;-71
2022/08/10 08:36:04;;;;;;;1.92;1.15;;;;;;;;;;5033067;28;20053;-71
2022/08/10 08:38:31;;;;;;;2.97;1.20;;;;;;;;;;5033412;28;20061;-70
2022/08/10 08:41:09;;;;;;;2.65;1.08;;;;;;;;;;5033215;28;20049;-71
2022/08/10 08:43:51;;;;;;;2.00;1.20;;;;;;;;;;5032473;28;20053;-69
2022/08/10 08:46:44;;;;;;;2.17;1.10;;;;;;;;;;5033168;28;20127;-69
2022/08/10 08:49:21;;;;;;;1.00;0.90;;;;;;;;;;5032497;28;20104;-68
2022/08/10 08:52:13;;;;;;;1.60;0.80;;;;;;;;;;5033050;28;20049;-68
2022/08/10 08:54:47;;;;;;;2.95;0.90;;;;;;;;;;5032747;28;20472;-68
2022/08/10 08:57:21;;;;;;;1.10;0.80;;;;;;;;;;5031008;28;20123;-69
2022/08/10 09:00:16;;;;;;;1.52;0.80;;;;;;;;;;5032879;28;20060;-69
2022/08/10 09:02:54;;;;;;;1.08;0.90;;;;;;;;;;5032806;28;20061;-69
2022/08/10 09:05:33;;;;;;;1.10;0.60;;;;;;;;;;5032584;28;20049;-70
2022/08/10 09:08:34;;;;;;;2.30;0.60;;;;;;;;;;5032704;28;20049;-70
2022/08/10 09:11:11;;;;;;;0.60;0.60;;;;;;;;;;5032519;28;20575;-69
2022/08/10 09:13:56;;;;;;;1.08;0.55;;;;;;;;;;5032679;28;20053;-69
2022/08/10 09:16:27;;;;;;;1.75;0.70;;;;;;;;;;5031333;28;20383;-69
2022/08/10 09:19:00;;;;;;;2.97;0.80;;;;;;;;;;5032537;28;20099;-69
2022/08/10 09:21:48;;;;;;;2.05;0.63;;;;;;;;;;5032472;28;20084;-69
2022/08/10 09:24:30;;;;;;;0.90;0.70;;;;;;;;;;5032209;28;20994;-70
2022/08/10 09:26:59;;;;;;;0.93;0.60;;;;;;;;;;5032166;28;20093;-70
2022/08/10 09:29:28;;;;;;;1.42;0.60;;;;;;;;;;5032386;28;20041;-69
2022/08/10 09:32:15;;;;;;;1.13;0.60;;;;;;;;;;5030869;28;20049;-69
2022/08/10 09:35:09;;;;;;;2.88;0.60;;;;;;;;;;5031091;28;20143;-70
2022/08/10 09:38:11;;;;;;;3.05;0.52;;;;;;;;;;5031493;28;20140;-69
2022/08/10 09:40:53;;;;;;;1.23;0.70;;;;;;;;;;5031185;28;20460;-69
2022/08/10 09:43:51;;;;;;;0.73;0.70;;;;;;;;;;5032788;28;20068;-69
2022/08/10 09:46:35;;;;;;;0.45;0.40;;;;;;;;;;5032588;28;20116;-69
2022/08/10 09:49:07;;;;;;;1.92;0.70;;;;;;;;;;5031079;28;20055;-71
2022/08/10 09:51:52;;;;;;;1.15;0.73;;;;;;;;;;5032505;28;20037;-70
2022/08/10 09:54:38;;;;;;;1.73;0.65;;;;;;;;;;5032139;28;20049;-71
2022/08/10 09:57:16;;;;;;;1.65;0.80;;;;;;;;;;5032391;28;20464;-70
2022/08/10 10:00:13;;;;;;;1.52;0.60;;;;;;;;;;5031964;28;20171;-71
2022/08/10 10:02:58;;;;;;;1.05;0.60;;;;;;;;;;5032184;28;20136;-71
2022/08/10 10:05:45;;;;;;;0.98;0.50;;;;;;;;;;5032191;28;20057;-72
2022/08/10 10:08:20;;;;;;;2.08;0.70;;;;;;;;;;5031880;28;20067;-71
2022/08/10 10:10:47;;;;;;;1.65;0.70;;;;;;;;;;5031962;28;20041;-72
2022/08/10 10:13:18;;;;;;;3.15;0.90;;;;;;;;;;5032145;28;20045;-72
2022/08/10 10:16:12;;;;;;;3.72;0.90;;;;;;;;;;5032057;28;20476;-73
2022/08/10 10:18:46;;;;;;;1.45;0.60;;;;;;;;;;5032104;28;20049;-69
2022/08/10 10:21:16;;;;;;;1.98;0.80;;;;;;;;;;5031905;28;20524;-71
2022/08/10 10:24:12;;;;;;;1.80;0.90;;;;;;;;;;5031977;28;20404;-72
2022/08/10 10:26:47;;;;;;;;;;;;;;;;;;5032375;28;20090;-71
2022/08/10 10:29:18;;;;;;;0.85;0.70;;;;;;;;;;5031935;28;19972;-72
2022/08/10 10:32:11;;;;;;;4.45;0.75;;;;;;;;;;5031629;28;20052;-71
2022/08/10 10:34:37;;;;;;;1.95;0.60;;;;;;;;;;5032002;28;20073;-71
2022/08/10 10:37:05;;;;;;;0.65;0.50;;;;;;;;;;5031607;28;20513;-71
2022/08/10 10:39:33;;;;;;;1.85;0.73;;;;;;;;;;5031638;28;20049;-71
2022/08/10 10:42:11;;;;;;;1.45;0.90;;;;;;;;;;5031773;28;20056;-71
2022/08/10 10:45:17;;;;;;;1.52;0.80;;;;;;;;;;5031423;28;20137;-71
2022/08/10 10:47:52;;;;;;;2.60;0.70;;;;;;;;;;5031557;28;20092;-70
2022/08/10 10:50:38;;;;;;;0.95;0.63;;;;;;;;;;5031827;28;20045;-71
2022/08/10 10:53:21;;;;;;;1.42;0.70;;;;;;;;;;5031465;28;20466;-71
2022/08/10 10:56:01;;;;;;;1.85;0.90;;;;;;;;;;5030200;28;20077;-71
2022/08/10 10:58:43;;;;;;;2.65;0.60;;;;;;;;;;5031693;28;20052;-71
2022/08/10 11:01:10;;;;;;;2.65;0.60;;;;;;;;;;5031629;28;20134;-71
2022/08/10 11:03:45;;;;;;;0.68;0.50;;;;;;;;;;5030434;28;20049;-71
2022/08/10 11:06:26;;;;;;;1.55;0.60;;;;;;;;;;5031011;28;20405;-71
2022/08/10 11:09:10;;;;;;;1.25;0.55;;;;;;;;;;5035547;28;20053;-71
2022/08/10 11:11:59;;;;;;;2.22;0.60;;;;;;;;;;5035442;28;20087;-71
2022/08/10 11:14:35;;;;;;;0.90;0.40;;;;;;;;;;5035566;28;20049;-71
2022/08/10 11:17:10;;;;;;;0.75;0.50;;;;;;;;;;5035153;28;20057;-71
2022/08/10 11:19:36;;;;;;;;;;;;;;;;;;5034243;28;20575;-71
2022/08/10 11:22:26;;;;;;;2.28;0.47;;;;;;;;;;5035271;28;20278;-71
2022/08/10 11:25:02;;;;;;;0.70;0.50;;;;;;;;;;5034998;28;20076;-72
2022/08/10 11:27:28;;;;;;;2.10;0.70;;;;;;;;;;5034910;28;20096;-71
2022/08/10 11:30:01;;;;;;;1.10;0.50;;;;;;;;;;5035161;28;20042;-71
2022/08/10 11:32:45;;;;;;;0.82;0.55;;;;;;;;;;5033873;28;20046;-71
2022/08/10 11:35:24;;;;;;;1.17;0.55;;;;;;;;;;5026306;28;20547;-71
2022/08/10 11:38:09;;;;;;;1.65;0.40;;;;;;;;;;5035002;28;20077;-71
2022/08/10 11:41:01;;;;;;;1.75;0.50;;;;;;;;;;5034993;28;20140;-71
2022/08/10 11:43:53;;;;;;;1.13;0.45;;;;;;;;;;5034610;28;20133;-71
2022/08/10 11:46:33;;;;;;;2.40;0.50;;;;;;;;;;5034877;28;20049;-71
2022/08/10 11:49:22;;;;;;;0.65;0.50;;;;;;;;;;5034801;28;20095;-71
2022/08/10 11:51:54;;;;;;;1.08;0.50;;;;;;;;;;5034628;28;20520;-71
2022/08/10 11:54:24;;;;;;;1.50;0.60;;;;;;;;;;5034515;28;20452;-71
2022/08/10 11:56:52;;;;;;;1.67;0.35;;;;;;;;;;5034808;28;20053;-71
2022/08/10 12:02:15;;;;;;;0.50;0.30;;;;;;;;;;5034389;28;20088;-71
2022/08/10 12:04:44;;;;;;;0.70;0.50;;;;;;;;;;5032952;28;20060;-71
2022/08/10 12:07:11;;;;;;;1.63;0.50;;;;;;;;;;5032744;28;20089;-72
2022/08/10 12:09:57;;;;;;;1.60;0.75;;;;;;;;;;5034093;28;20056;-71
2022/08/10 12:12:43;;;;;;;0.63;0.50;;;;;;;;;;5034280;28;20045;-71
2022/08/10 12:15:14;;;;;;;1.02;0.40;;;;;;;;;;5032880;28;20045;-71
2022/08/10 12:17:47;;;;;;;2.63;0.40;;;;;;;;;;5034109;28;20054;-71
2022/08/10 12:20:34;;;;;;;1.63;0.40;;;;;;;;;;5033084;28;20085;-71
2022/08/10 12:23:09;;;;;;;2.63;0.55;;;;;;;;;;5034364;28;20050;-71
2022/08/10 12:25:56;;;;;;;1.33;0.50;;;;;;;;;;5034135;28;20049;-71
2022/08/10 12:28:30;;;;;;;0.98;0.50;;;;;;;;;;5032939;28;20072;-71
2022/08/10 12:31:18;;;;;;;2.13;0.50;;;;;;;;;;5034091;28;20053;-71
2022/08/10 12:33:48;;;;;;;0.75;0.50;;;;;;;;;;5033695;28;20057;-71
2022/08/10 12:36:32;;;;;;;0.85;0.50;;;;;;;;;;5034026;28;20475;-71
2022/08/10 12:38:58;;;;;;;0.75;0.50;;;;;;;;;;5033649;28;20107;-71
2022/08/10 12:41:30;;;;;;;1.85;0.60;;;;;;;;;;5033930;28;20045;-71
2022/08/10 12:44:17;;;;;;;0.30;0.30;;;;;;;;;;5032717;28;20054;-71
2022/08/10 12:46:49;;;;;;;0.75;0.40;;;;;;;;;;5033700;28;20049;-71
2022/08/10 12:49:22;;;;;;;1.58;0.40;;;;;;;;;;5033626;28;20049;-71
2022/08/10 12:51:55;;;;;;;0.57;0.30;;;;;;;;;;5033792;28;20123;-71
2022/08/10 12:54:21;;;;;;;0.70;0.43;;;;;;;;;;5033675;28;20076;-71
2022/08/10 12:56:59;;;;;;;0.82;0.50;;;;;;;;;;5033748;28;20049;-71
2022/08/10 12:59:27;;;;;;;0.57;0.50;;;;;;;;;;5033473;28;20049;-71
2022/08/10 13:01:55;;;;;;;0.90;0.50;;;;;;;;;;5033431;28;20081;-70
2022/08/10 13:04:36;;;;;;;2.08;0.40;;;;;;;;;;5033449;28;20049;-71
2022/08/10 13:07:04;;;;;;;0.57;0.40;;;;;;;;;;5032854;28;20084;-71
2022/08/10 13:09:31;;;;;;;1.65;0.45;;;;;;;;;;5033438;28;20049;-71
2022/08/10 13:11:58;;;;;;;2.15;0.43;;;;;;;;;;5033364;28;20050;-71
2022/08/10 13:14:45;;;;;;;1.77;0.32;;;;;;;;;;5032852;28;20057;-71
2022/08/10 13:17:18;;;;;;;2.03;0.60;;;;;;;;;;5032951;28;20058;-71
2022/08/10 13:19:47;;;;;;;0.75;0.40;;;;;;;;;;5032904;28;20053;-71
2022/08/10 13:22:23;;;;;;;1.40;0.57;;;;;;;;;;5033201;28;20413;-71
2022/08/10 13:24:51;;;;;;;0.98;0.50;;;;;;;;;;5033072;28;20049;-71
2022/08/10 13:27:33;;;;;;;0.63;0.30;;;;;;;;;;5032738;28;20489;-71
2022/08/10 13:30:24;;;;;;;2.28;0.40;;;;;;;;;;5032580;28;20472;-71
2022/08/10 13:33:03;;;;;;;0.55;0.40;;;;;;;;;;5020873;28;20060;-71
2022/08/10 13:35:31;;;;;;;0.90;0.40;;;;;;;;;;5031722;28;20088;-71
2022/08/10 13:38:00;;;;;;;1.80;0.50;;;;;;;;;;5032899;28;20080;-71
2022/08/10 13:40:27;;;;;;;0.45;0.32;;;;;;;;;;5032807;28;20045;-71
2022/08/10 13:42:57;;;;;;;1.55;0.40;;;;;;;;;;5032559;28;20555;-71
2022/08/10 13:45:24;;;;;;;1.02;0.40;;;;;;;;;;5032488;28;20456;-71
2022/08/10 13:47:53;;;;;;;0.32;0.22;;;;;;;;;;5032436;28;20049;-71
2022/08/10 13:50:24;;;;;;;0.95;0.30;;;;;;;;;;5032721;28;20101;-71
2022/08/10 13:53:03;;;;;;;0.63;0.47;;;;;;;;;;5032622;28;20041;-71
2022/08/10 13:55:43;;;;;;;1.35;0.32;;;;;;;;;;5032560;28;20049;-71
2022/08/10 13:58:39;;;;;;;0.60;0.30;;;;;;;;;;5032181;28;20049;-71
2022/08/10 14:01:13;;;;;;;0.75;0.30;;;;;;;;;;5032385;28;20073;-71
2022/08/10 14:03:40;;;;;;;;;;;;;;;;;;5032898;28;20115;-71
2022/08/10 14:06:10;;;;;;;2.92;0.40;;;;;;;;;;5032118;28;19921;-71
2022/08/10 14:08:40;;;;;;;3.08;0.32;;;;;;;;;;5031930;28;20045;-72
2022/08/10 14:11:11;;;;;;;1.80;0.40;;;;;;;;;;5032647;28;20452;-72
2022/08/10 14:13:53;;;;;;;0.75;0.40;;;;;;;;;;5032194;28;20100;-72
2022/08/10 14:16:20;;;;;;;0.85;0.30;;;;;;;;;;5031971;28;20073;-72
2022/08/10 14:18:48;;;;;;;1.35;0.30;;;;;;;;;;5032157;28;20077;-72
2022/08/10 14:21:15;;;;;;;0.65;0.30;;;;;;;;;;5031890;28;20083;-72
2022/08/10 14:23:42;;;;;;;1.05;0.40;;;;;;;;;;5031689;28;20535;-72
2022/08/10 14:26:27;;;;;;;0.98;0.40;;;;;;;;;;5031786;28;20077;-72
2022/08/10 14:28:56;;;;;;;4.53;0.40;;;;;;;;;;5031955;28;20041;-72
2022/08/10 14:31:28;;;;;;;0.22;0.20;;;;;;;;;;5031961;28;20053;-72
2022/08/10 14:33:56;;;;;;;0.20;0.20;;;;;;;;;;5031707;28;20493;-72
2022/08/10 14:36:28;;;;;;;1.17;0.40;;;;;;;;;;5031958;28;20042;-72
2022/08/10 14:38:55;;;;;;;1.52;0.45;;;;;;;;;;5030696;28;20089;-72
2022/08/10 14:41:26;;;;;;;1.35;0.32;;;;;;;;;;5031291;28;20042;-72
2022/08/10 14:44:13;;;;;;;1.63;0.40;;;;;;;;;;5031726;28;20140;-72
2022/08/10 14:46:44;;;;;;;0.57;0.20;;;;;;;;;;5031586;28;20072;-72
2022/08/10 14:49:12;;;;;;;0.57;0.30;;;;;;;;;;5031667;28;20057;-72
2022/08/10 14:51:56;;;;;;;0.55;0.30;;;;;;;;;;5031601;28;20507;-72
2022/08/10 14:54:25;;;;;;;1.83;0.40;;;;;;;;;;5031819;28;20080;-72
2022/08/10 14:57:01;;;;;;;0.30;0.20;;;;;;;;;;5031469;28;20103;-72
2022/08/10 14:59:37;;;;;;;0.68;0.25;;;;;;;;;;5031588;28;20081;-72
2022/08/10 15:02:25;;;;;;;3.22;0.40;;;;;;;;;;5031684;28;20057;-73
2022/08/10 15:05:12;;;;;;;1.10;0.40;;;;;;;;;;5031343;28;20049;-73
2022/08/10 15:07:44;;;;;;;1.33;0.47;;;;;;;;;;5031144;28;20061;-73
2022/08/10 15:10:15;;;;;;;1.85;0.40;;;;;;;;;;5031322;28;20408;-73
2022/08/10 15:12:43;;;;;;;2.30;0.40;;;;;;;;;;5031395;28;20057;-73
2022/08/10 15:15:11;;;;;;;2.17;0.60;;;;;;;;;;5030171;28;20382;-73
2022/08/10 15:17:49;;;;;;;1.35;0.30;;;;;;;;;;5031357;28;20053;-72
2022/08/10 15:20:19;;;;;;;1.30;0.40;;;;;;;;;;5031481;28;20091;-72
2022/08/10 15:22:47;;;;;;;0.60;0.30;;;;;;;;;;5031474;28;20416;-72
2022/08/10 15:25:17;;;;;;;0.90;0.43;;;;;;;;;;5031414;28;20057;-72
2022/08/10 15:27:50;;;;;;;;;;;;;;;;;;5031924;28;20050;-72
2022/08/10 15:30:22;;;;;;;1.08;0.20;;;;;;;;;;5031460;28;19932;-72
2022/08/10 15:38:40;;;;;;;2.65;0.40;;;;;;;;;;5030639;28;20049;-73
2022/08/10 15:41:10;;;;;;;1.25;0.40;;;;;;;;;;5030752;28;20083;-73